sensor_id;sensor_type;location;lat;lon;timestamp;pressure;altitude;pressure_sealevel;temperature;humidity
13209;BME280;6669;42.678;23.332;2024-01-15T00:01:03;93993.34;;;-1.91;100.00
13209;BME280;6669;42.678;23.332;2024-01-15T00:03:33;94000.47;;;-2.08;100.00
13209;BME280;6669;42.678;23.332;2024-01-15T00:06:01;93985.38;;;-2.22;100.00
13209;BME280;6669;42.678;23.332;2024-01-15T00:08:29;93991.88;;;-2.18;100.00
13209;BME280;6669;42.678;23.332;2024-01-15T00:10:58;93974.22;;;-2.33;100.00
13209;BME280;6669;42.678;23.332;2024-01-15T00:13:26;93988.47;;;-2.30;100.00
13209;BME280;6669;42.678;23.332;2024-01-15T00:15:54;93980.44;;;-2.37;100.00
13209;BME280;6669;42.678;23.332;2024-01-15T00:18:22;93982.00;;;-2.34;100.00
13209;BME280;6669;42.678;23.332;2024-01-15T00:20:52;93993.03;;;-2.47;100.00
13209;BME280;6669;42.678;23.332;2024-01-15T00:23:20;93973.31;;;-2.56;100.00
13209;BME280;6669;42.678;23.332;2024-01-15T00:25:50;93994.25;;;-2.52;100.00
13209;BME280;6669;42.678;23.332;2024-01-15T00:28:19;93982.84;;;-2.47;100.00
13209;BME280;6669;42.678;23.332;2024-01-15T00:30:47;93984.91;;;-2.52;100.00
13209;BME280;6669;42.678;23.332;2024-01-15T00:33:15;93979.94;;;-2.53;100.00
13209;BME280;6669;42.678;23.332;2024-01-15T00:35:44;93981.72;;;-2.42;100.00
13209;BME280;6669;42.678;23.332;2024-01-15T00:38:14;93981.00;;;-2.44;100.00
13209;BME280;6669;42.678;23.332;2024-01-15T00:40:42;93984.63;;;-2.36;100.00
13209;BME280;6669;42.678;23.332;2024-01-15T00:43:10;93981.88;;;-2.33;100.00
13209;BME280;6669;42.678;23.332;2024-01-15T00:45:39;93981.44;;;-2.26;100.00
13209;BME280;6669;42.678;23.332;2024-01-15T00:48:07;93978.19;;;-2.28;100.00
13209;BME280;6669;42.678;23.332;2024-01-15T00:50:36;93979.28;;;-2.44;100.00
13209;BME280;6669;42.678;23.332;2024-01-15T00:53:04;93980.44;;;-2.37;100.00
13209;BME280;6669;42.678;23.332;2024-01-15T00:55:35;93986.56;;;-2.39;100.00
13209;BME280;6669;42.678;23.332;2024-01-15T00:58:04;93972.28;;;-2.29;100.00
13209;BME280;6669;42.678;23.332;2024-01-15T01:00:32;93979.38;;;-2.21;100.00
13209;BME280;6669;42.678;23.332;2024-01-15T01:03:00;93975.69;;;-2.17;100.00
13209;BME280;6669;42.678;23.332;2024-01-15T01:05:29;93971.06;;;-2.12;100.00
13209;BME280;6669;42.678;23.332;2024-01-15T01:07:57;93981.91;;;-2.21;100.00
13209;BME280;6669;42.678;23.332;2024-01-15T01:10:25;93977.63;;;-2.21;100.00
13209;BME280;6669;42.678;23.332;2024-01-15T01:12:55;93968.19;;;-2.07;100.00
13209;BME280;6669;42.678;23.332;2024-01-15T01:15:23;93975.72;;;-2.06;100.00
13209;BME280;6669;42.678;23.332;2024-01-15T01:17:51;93964.34;;;-2.13;100.00
13209;BME280;6669;42.678;23.332;2024-01-15T01:20:20;93963.66;;;-2.15;100.00
13209;BME280;6669;42.678;23.332;2024-01-15T01:22:48;93963.31;;;-2.10;100.00
13209;BME280;6669;42.678;23.332;2024-01-15T01:25:16;93959.69;;;-2.19;100.00
13209;BME280;6669;42.678;23.332;2024-01-15T01:27:45;93958.56;;;-2.15;100.00
13209;BME280;6669;42.678;23.332;2024-01-15T01:30:14;93951.41;;;-2.10;100.00
13209;BME280;6669;42.678;23.332;2024-01-15T01:32:43;93956.13;;;-2.05;100.00
13209;BME280;6669;42.678;23.332;2024-01-15T01:35:12;93959.84;;;-2.09;100.00
13209;BME280;6669;42.678;23.332;2024-01-15T01:37:41;93942.66;;;-2.30;100.00
13209;BME280;6669;42.678;23.332;2024-01-15T01:40:09;93958.38;;;-2.36;100.00
13209;BME280;6669;42.678;23.332;2024-01-15T01:42:38;93941.38;;;-2.60;100.00
13209;BME280;6669;42.678;23.332;2024-01-15T01:45:07;93942.09;;;-2.82;100.00
13209;BME280;6669;42.678;23.332;2024-01-15T01:47:37;93944.81;;;-2.72;100.00
13209;BME280;6669;42.678;23.332;2024-01-15T01:50:06;93942.88;;;-2.82;100.00
13209;BME280;6669;42.678;23.332;2024-01-15T01:52:35;93951.34;;;-2.81;100.00
13209;BME280;6669;42.678;23.332;2024-01-15T01:55:06;93949.72;;;-2.82;100.00
13209;BME280;6669;42.678;23.332;2024-01-15T01:57:35;93939.66;;;-2.84;100.00
13209;BME280;6669;42.678;23.332;2024-01-15T02:00:05;93945.13;;;-2.77;100.00
13209;BME280;6669;42.678;23.332;2024-01-15T02:02:33;93933.53;;;-2.81;100.00
13209;BME280;6669;42.678;23.332;2024-01-15T02:05:05;93929.25;;;-2.81;100.00
13209;BME280;6669;42.678;23.332;2024-01-15T02:07:35;93926.09;;;-2.84;100.00
13209;BME280;6669;42.678;23.332;2024-01-15T02:10:04;93928.47;;;-2.81;100.00
13209;BME280;6669;42.678;23.332;2024-01-15T02:12:33;93927.84;;;-2.85;100.00
13209;BME280;6669;42.678;23.332;2024-01-15T02:15:01;93925.19;;;-2.83;100.00
13209;BME280;6669;42.678;23.332;2024-01-15T02:17:30;93920.72;;;-2.80;100.00
13209;BME280;6669;42.678;23.332;2024-01-15T02:19:58;93912.47;;;-2.83;100.00
13209;BME280;6669;42.678;23.332;2024-01-15T02:22:28;93909.50;;;-2.77;100.00
13209;BME280;6669;42.678;23.332;2024-01-15T02:24:57;93900.38;;;-2.80;100.00
13209;BME280;6669;42.678;23.332;2024-01-15T02:27:25;93883.84;;;-2.74;100.00
13209;BME280;6669;42.678;23.332;2024-01-15T02:29:54;93864.63;;;-2.78;100.00
13209;BME280;6669;42.678;23.332;2024-01-15T02:32:23;93864.31;;;-2.73;100.00
13209;BME280;6669;42.678;23.332;2024-01-15T02:34:51;93866.50;;;-2.69;100.00
13209;BME280;6669;42.678;23.332;2024-01-15T02:37:20;93867.66;;;-2.73;100.00
13209;BME280;6669;42.678;23.332;2024-01-15T02:39:48;93870.19;;;-2.73;100.00
13209;BME280;6669;42.678;23.332;2024-01-15T02:42:17;93866.75;;;-2.72;100.00
13209;BME280;6669;42.678;23.332;2024-01-15T02:44:46;93866.56;;;-2.57;100.00
13209;BME280;6669;42.678;23.332;2024-01-15T02:47:15;93866.16;;;-2.40;100.00
13209;BME280;6669;42.678;23.332;2024-01-15T02:49:43;93864.91;;;-2.34;100.00
13209;BME280;6669;42.678;23.332;2024-01-15T02:52:11;93872.06;;;-2.28;100.00
13209;BME280;6669;42.678;23.332;2024-01-15T02:54:40;93862.50;;;-2.13;100.00
13209;BME280;6669;42.678;23.332;2024-01-15T02:57:08;93877.16;;;-2.28;100.00
13209;BME280;6669;42.678;23.332;2024-01-15T02:59:38;93869.13;;;-2.46;100.00
13209;BME280;6669;42.678;23.332;2024-01-15T03:02:06;93866.34;;;-2.54;100.00
13209;BME280;6669;42.678;23.332;2024-01-15T03:04:34;93863.88;;;-2.67;100.00
13209;BME280;6669;42.678;23.332;2024-01-15T03:07:02;93863.84;;;-2.78;100.00
13209;BME280;6669;42.678;23.332;2024-01-15T03:09:32;93875.47;;;-2.87;100.00
13209;BME280;6669;42.678;23.332;2024-01-15T03:12:00;93875.38;;;-2.86;100.00
13209;BME280;6669;42.678;23.332;2024-01-15T03:14:28;93861.63;;;-2.83;100.00
13209;BME280;6669;42.678;23.332;2024-01-15T03:16:58;93855.09;;;-2.99;100.00
13209;BME280;6669;42.678;23.332;2024-01-15T03:19:27;93861.19;;;-3.01;100.00
13209;BME280;6669;42.678;23.332;2024-01-15T03:21:55;93856.22;;;-3.03;100.00
13209;BME280;6669;42.678;23.332;2024-01-15T03:24:24;93856.31;;;-3.04;100.00
13209;BME280;6669;42.678;23.332;2024-01-15T03:26:52;93852.16;;;-3.05;100.00
13209;BME280;6669;42.678;23.332;2024-01-15T03:29:20;93851.09;;;-3.14;100.00
13209;BME280;6669;42.678;23.332;2024-01-15T03:31:49;93854.22;;;-3.10;100.00
13209;BME280;6669;42.678;23.332;2024-01-15T03:34:18;93844.53;;;-3.05;100.00
13209;BME280;6669;42.678;23.332;2024-01-15T03:36:47;93842.31;;;-3.10;100.00
13209;BME280;6669;42.678;23.332;2024-01-15T03:39:15;93842.19;;;-3.08;100.00
13209;BME280;6669;42.678;23.332;2024-01-15T03:41:44;93836.38;;;-2.98;100.00
13209;BME280;6669;42.678;23.332;2024-01-15T03:44:11;93833.00;;;-2.98;100.00
13209;BME280;6669;42.678;23.332;2024-01-15T03:46:39;93839.28;;;-2.91;100.00
13209;BME280;6669;42.678;23.332;2024-01-15T03:49:08;93833.34;;;-3.03;100.00
13209;BME280;6669;42.678;23.332;2024-01-15T03:51:37;93838.31;;;-3.01;100.00
13209;BME280;6669;42.678;23.332;2024-01-15T03:54:06;93842.38;;;-2.99;100.00
13209;BME280;6669;42.678;23.332;2024-01-15T03:56:34;93838.06;;;-2.98;100.00
13209;BME280;6669;42.678;23.332;2024-01-15T03:59:02;93839.97;;;-3.13;100.00
13209;BME280;6669;42.678;23.332;2024-01-15T04:01:30;93843.88;;;-3.20;100.00
13209;BME280;6669;42.678;23.332;2024-01-15T04:03:59;93835.88;;;-3.27;100.00
13209;BME280;6669;42.678;23.332;2024-01-15T04:06:27;93819.59;;;-3.24;100.00
13209;BME280;6669;42.678;23.332;2024-01-15T04:08:58;93815.94;;;-3.20;100.00
13209;BME280;6669;42.678;23.332;2024-01-15T04:11:27;93827.00;;;-3.21;100.00
13209;BME280;6669;42.678;23.332;2024-01-15T04:13:55;93823.56;;;-3.20;100.00
13209;BME280;6669;42.678;23.332;2024-01-15T04:16:24;93825.88;;;-3.17;100.00
13209;BME280;6669;42.678;23.332;2024-01-15T04:18:52;93817.00;;;-3.12;100.00
13209;BME280;6669;42.678;23.332;2024-01-15T04:21:20;93816.56;;;-3.05;100.00
13209;BME280;6669;42.678;23.332;2024-01-15T04:23:49;93824.56;;;-2.99;100.00
13209;BME280;6669;42.678;23.332;2024-01-15T04:26:18;93816.22;;;-3.01;100.00
13209;BME280;6669;42.678;23.332;2024-01-15T04:28:46;93822.13;;;-3.00;100.00
13209;BME280;6669;42.678;23.332;2024-01-15T04:31:21;93819.47;;;-2.99;100.00
13209;BME280;6669;42.678;23.332;2024-01-15T04:33:50;93816.81;;;-2.97;100.00
13209;BME280;6669;42.678;23.332;2024-01-15T04:36:18;93819.69;;;-3.02;100.00
13209;BME280;6669;42.678;23.332;2024-01-15T04:38:46;93822.22;;;-3.02;100.00
13209;BME280;6669;42.678;23.332;2024-01-15T04:41:17;93807.44;;;-3.08;100.00
13209;BME280;6669;42.678;23.332;2024-01-15T04:43:46;93820.69;;;-2.91;100.00
13209;BME280;6669;42.678;23.332;2024-01-15T04:46:14;93817.75;;;-2.98;100.00
13209;BME280;6669;42.678;23.332;2024-01-15T04:48:42;93803.63;;;-3.02;100.00
13209;BME280;6669;42.678;23.332;2024-01-15T04:51:11;93803.47;;;-3.12;100.00
13209;BME280;6669;42.678;23.332;2024-01-15T04:53:39;93814.22;;;-3.08;100.00
13209;BME280;6669;42.678;23.332;2024-01-15T04:56:07;93805.38;;;-3.03;100.00
13209;BME280;6669;42.678;23.332;2024-01-15T04:58:37;93807.53;;;-3.09;100.00
13209;BME280;6669;42.678;23.332;2024-01-15T05:01:05;93798.19;;;-3.09;100.00
13209;BME280;6669;42.678;23.332;2024-01-15T05:03:33;93797.28;;;-3.08;100.00
13209;BME280;6669;42.678;23.332;2024-01-15T05:06:02;93801.63;;;-3.10;100.00
13209;BME280;6669;42.678;23.332;2024-01-15T05:08:30;93803.59;;;-3.14;100.00
13209;BME280;6669;42.678;23.332;2024-01-15T05:10:58;93797.28;;;-3.08;100.00
13209;BME280;6669;42.678;23.332;2024-01-15T05:13:27;93783.72;;;-3.08;100.00
13209;BME280;6669;42.678;23.332;2024-01-15T05:15:56;93771.56;;;-3.16;100.00
13209;BME280;6669;42.678;23.332;2024-01-15T05:18:25;93784.50;;;-3.19;100.00
13209;BME280;6669;42.678;23.332;2024-01-15T05:20:53;93778.72;;;-3.21;100.00
13209;BME280;6669;42.678;23.332;2024-01-15T05:23:21;93785.06;;;-3.27;100.00
13209;BME280;6669;42.678;23.332;2024-01-15T05:25:49;93791.81;;;-3.39;100.00
13209;BME280;6669;42.678;23.332;2024-01-15T05:28:18;93795.91;;;-3.25;100.00
13209;BME280;6669;42.678;23.332;2024-01-15T05:30:46;93794.63;;;-3.31;100.00
13209;BME280;6669;42.678;23.332;2024-01-15T05:33:15;93805.81;;;-3.33;100.00
13209;BME280;6669;42.678;23.332;2024-01-15T05:35:44;93786.84;;;-3.40;100.00
13209;BME280;6669;42.678;23.332;2024-01-15T05:38:13;93788.78;;;-3.44;100.00
13209;BME280;6669;42.678;23.332;2024-01-15T05:40:41;93782.00;;;-3.56;100.00
13209;BME280;6669;42.678;23.332;2024-01-15T05:43:09;93780.34;;;-3.69;100.00
13209;BME280;6669;42.678;23.332;2024-01-15T05:45:38;93779.91;;;-3.63;100.00
13209;BME280;6669;42.678;23.332;2024-01-15T05:48:06;93782.41;;;-3.50;100.00
13209;BME280;6669;42.678;23.332;2024-01-15T05:50:36;93766.34;;;-3.50;100.00
13209;BME280;6669;42.678;23.332;2024-01-15T05:53:04;93765.31;;;-3.48;100.00
13209;BME280;6669;42.678;23.332;2024-01-15T05:55:34;93757.31;;;-3.54;100.00
13209;BME280;6669;42.678;23.332;2024-01-15T05:58:03;93752.28;;;-3.43;100.00
13209;BME280;6669;42.678;23.332;2024-01-15T06:00:32;93764.72;;;-3.27;100.00
13209;BME280;6669;42.678;23.332;2024-01-15T06:03:02;93774.78;;;-3.25;100.00
13209;BME280;6669;42.678;23.332;2024-01-15T06:05:31;93780.47;;;-3.22;100.00
13209;BME280;6669;42.678;23.332;2024-01-15T06:08:00;93781.38;;;-3.23;100.00
13209;BME280;6669;42.678;23.332;2024-01-15T06:10:29;93783.31;;;-3.26;100.00
13209;BME280;6669;42.678;23.332;2024-01-15T06:12:57;93769.81;;;-3.27;100.00
13209;BME280;6669;42.678;23.332;2024-01-15T06:15:25;93774.72;;;-3.37;100.00
13209;BME280;6669;42.678;23.332;2024-01-15T06:17:53;93761.19;;;-3.37;100.00
13209;BME280;6669;42.678;23.332;2024-01-15T06:20:21;93772.38;;;-3.40;100.00
13209;BME280;6669;42.678;23.332;2024-01-15T06:22:50;93770.84;;;-3.30;100.00
13209;BME280;6669;42.678;23.332;2024-01-15T06:25:19;93764.34;;;-3.34;100.00
13209;BME280;6669;42.678;23.332;2024-01-15T06:27:47;93760.88;;;-3.33;100.00
13209;BME280;6669;42.678;23.332;2024-01-15T06:30:16;93758.84;;;-3.16;100.00
13209;BME280;6669;42.678;23.332;2024-01-15T06:32:44;93758.75;;;-3.15;100.00
13209;BME280;6669;42.678;23.332;2024-01-15T06:35:13;93776.78;;;-3.18;100.00
13209;BME280;6669;42.678;23.332;2024-01-15T06:37:41;93774.72;;;-3.13;100.00
13209;BME280;6669;42.678;23.332;2024-01-15T06:40:09;93774.66;;;-2.88;100.00
13209;BME280;6669;42.678;23.332;2024-01-15T06:42:39;93764.19;;;-2.72;100.00
13209;BME280;6669;42.678;23.332;2024-01-15T06:45:08;93773.72;;;-2.52;100.00
13209;BME280;6669;42.678;23.332;2024-01-15T06:47:37;93762.03;;;-2.43;100.00
13209;BME280;6669;42.678;23.332;2024-01-15T06:50:05;93762.38;;;-2.48;100.00
13209;BME280;6669;42.678;23.332;2024-01-15T06:52:34;93765.97;;;-2.27;100.00
13209;BME280;6669;42.678;23.332;2024-01-15T06:55:02;93767.47;;;-2.36;100.00
13209;BME280;6669;42.678;23.332;2024-01-15T06:57:30;93768.59;;;-2.63;100.00
13209;BME280;6669;42.678;23.332;2024-01-15T07:00:00;93784.47;;;-2.37;100.00
13209;BME280;6669;42.678;23.332;2024-01-15T07:02:33;93778.13;;;-2.20;100.00
13209;BME280;6669;42.678;23.332;2024-01-15T07:05:01;93778.72;;;-2.05;100.00
13209;BME280;6669;42.678;23.332;2024-01-15T07:07:31;93787.59;;;-1.88;100.00
13209;BME280;6669;42.678;23.332;2024-01-15T07:10:00;93783.91;;;-1.95;100.00
13209;BME280;6669;42.678;23.332;2024-01-15T07:12:28;93783.22;;;-1.97;100.00
13209;BME280;6669;42.678;23.332;2024-01-15T07:14:56;93777.09;;;-1.94;100.00
13209;BME280;6669;42.678;23.332;2024-01-15T07:17:26;93786.44;;;-1.95;100.00
13209;BME280;6669;42.678;23.332;2024-01-15T07:19:54;93796.03;;;-1.99;100.00
13209;BME280;6669;42.678;23.332;2024-01-15T07:22:23;93782.19;;;-1.94;100.00
13209;BME280;6669;42.678;23.332;2024-01-15T07:24:51;93778.31;;;-1.77;100.00
13209;BME280;6669;42.678;23.332;2024-01-15T07:27:19;93787.25;;;-1.72;100.00
13209;BME280;6669;42.678;23.332;2024-01-15T07:29:48;93761.53;;;-1.69;100.00
13209;BME280;6669;42.678;23.332;2024-01-15T07:32:16;93760.31;;;-1.53;100.00
13209;BME280;6669;42.678;23.332;2024-01-15T07:34:46;93753.50;;;-1.53;100.00
13209;BME280;6669;42.678;23.332;2024-01-15T07:37:14;93762.97;;;-1.43;100.00
13209;BME280;6669;42.678;23.332;2024-01-15T07:39:42;93764.47;;;-1.41;100.00
13209;BME280;6669;42.678;23.332;2024-01-15T07:42:12;93763.25;;;-1.25;100.00
13209;BME280;6669;42.678;23.332;2024-01-15T07:44:40;93766.47;;;-1.12;100.00
13209;BME280;6669;42.678;23.332;2024-01-15T07:47:08;93775.22;;;-1.05;100.00
13209;BME280;6669;42.678;23.332;2024-01-15T07:49:37;93780.31;;;-1.05;100.00
13209;BME280;6669;42.678;23.332;2024-01-15T07:52:07;93779.72;;;-0.97;100.00
13209;BME280;6669;42.678;23.332;2024-01-15T07:54:35;93790.25;;;-0.90;100.00
13209;BME280;6669;42.678;23.332;2024-01-15T07:57:04;93788.06;;;-0.95;100.00
13209;BME280;6669;42.678;23.332;2024-01-15T07:59:32;93771.34;;;-0.88;100.00
13209;BME280;6669;42.678;23.332;2024-01-15T08:02:00;93758.06;;;-0.82;100.00
13209;BME280;6669;42.678;23.332;2024-01-15T08:04:29;93728.63;;;-0.86;100.00
13209;BME280;6669;42.678;23.332;2024-01-15T08:06:58;93745.81;;;-0.67;100.00
13209;BME280;6669;42.678;23.332;2024-01-15T08:09:27;93750.34;;;-0.70;100.00
13209;BME280;6669;42.678;23.332;2024-01-15T08:11:56;93732.00;;;-0.85;100.00
13209;BME280;6669;42.678;23.332;2024-01-15T08:14:25;93760.94;;;-0.75;100.00
13209;BME280;6669;42.678;23.332;2024-01-15T08:16:53;93740.81;;;-0.89;100.00
13209;BME280;6669;42.678;23.332;2024-01-15T08:19:21;93768.97;;;-0.58;100.00
13209;BME280;6669;42.678;23.332;2024-01-15T08:21:49;93757.06;;;-0.69;100.00
13209;BME280;6669;42.678;23.332;2024-01-15T08:24:18;93771.53;;;-0.58;100.00
13209;BME280;6669;42.678;23.332;2024-01-15T08:26:48;93782.28;;;-0.34;100.00
13209;BME280;6669;42.678;23.332;2024-01-15T08:29:16;93785.09;;;-0.37;100.00
13209;BME280;6669;42.678;23.332;2024-01-15T08:31:45;93782.63;;;-0.17;100.00
13209;BME280;6669;42.678;23.332;2024-01-15T08:34:14;93733.09;;;-0.36;100.00
13209;BME280;6669;42.678;23.332;2024-01-15T08:36:42;93740.41;;;-0.21;100.00
13209;BME280;6669;42.678;23.332;2024-01-15T08:39:10;93750.44;;;0.02;100.00
13209;BME280;6669;42.678;23.332;2024-01-15T08:41:39;93748.16;;;0.08;100.00
13209;BME280;6669;42.678;23.332;2024-01-15T08:44:09;93742.13;;;0.09;100.00
13209;BME280;6669;42.678;23.332;2024-01-15T08:46:37;93753.47;;;0.26;100.00
13209;BME280;6669;42.678;23.332;2024-01-15T08:49:05;93721.47;;;0.32;100.00
13209;BME280;6669;42.678;23.332;2024-01-15T08:51:34;93743.03;;;0.49;100.00
13209;BME280;6669;42.678;23.332;2024-01-15T08:54:02;93745.72;;;0.57;100.00
13209;BME280;6669;42.678;23.332;2024-01-15T08:56:30;93737.38;;;0.55;100.00
13209;BME280;6669;42.678;23.332;2024-01-15T08:58:59;93728.63;;;0.48;100.00
13209;BME280;6669;42.678;23.332;2024-01-15T09:01:28;93737.91;;;0.49;100.00
13209;BME280;6669;42.678;23.332;2024-01-15T09:03:57;93714.22;;;0.47;100.00
13209;BME280;6669;42.678;23.332;2024-01-15T09:06:26;93710.44;;;0.41;100.00
13209;BME280;6669;42.678;23.332;2024-01-15T09:08:54;93711.13;;;0.43;100.00
13209;BME280;6669;42.678;23.332;2024-01-15T09:11:22;93715.03;;;0.47;100.00
13209;BME280;6669;42.678;23.332;2024-01-15T09:13:51;93689.72;;;0.54;100.00
13209;BME280;6669;42.678;23.332;2024-01-15T09:16:19;93672.38;;;0.68;100.00
13209;BME280;6669;42.678;23.332;2024-01-15T09:18:52;93663.19;;;0.75;100.00
13209;BME280;6669;42.678;23.332;2024-01-15T09:21:20;93648.00;;;0.73;100.00
13209;BME280;6669;42.678;23.332;2024-01-15T09:23:48;93671.31;;;0.70;100.00
13209;BME280;6669;42.678;23.332;2024-01-15T09:26:17;93675.88;;;0.67;100.00
13209;BME280;6669;42.678;23.332;2024-01-15T09:28:45;93656.34;;;0.65;100.00
13209;BME280;6669;42.678;23.332;2024-01-15T09:31:13;93643.41;;;0.57;100.00
13209;BME280;6669;42.678;23.332;2024-01-15T09:33:46;93632.78;;;0.62;100.00
13209;BME280;6669;42.678;23.332;2024-01-15T09:36:16;93657.69;;;0.70;100.00
13209;BME280;6669;42.678;23.332;2024-01-15T09:38:45;93646.41;;;0.62;100.00
13209;BME280;6669;42.678;23.332;2024-01-15T09:41:16;93616.38;;;0.55;100.00
13209;BME280;6669;42.678;23.332;2024-01-15T09:43:45;93631.03;;;0.72;100.00
13209;BME280;6669;42.678;23.332;2024-01-15T09:46:16;93627.25;;;0.86;100.00
13209;BME280;6669;42.678;23.332;2024-01-15T09:48:45;93634.50;;;0.91;100.00
13209;BME280;6669;42.678;23.332;2024-01-15T09:51:18;93593.75;;;0.79;100.00
13209;BME280;6669;42.678;23.332;2024-01-15T09:53:48;93594.97;;;0.65;100.00
13209;BME280;6669;42.678;23.332;2024-01-15T09:56:18;93574.91;;;0.61;100.00
13209;BME280;6669;42.678;23.332;2024-01-15T09:58:47;93585.56;;;0.46;100.00
13209;BME280;6669;42.678;23.332;2024-01-15T10:01:17;93573.72;;;0.55;100.00
13209;BME280;6669;42.678;23.332;2024-01-15T10:03:45;93583.94;;;0.65;100.00
13209;BME280;6669;42.678;23.332;2024-01-15T10:06:15;93611.28;;;0.45;100.00
13209;BME280;6669;42.678;23.332;2024-01-15T10:08:51;93608.84;;;0.53;100.00
13209;BME280;6669;42.678;23.332;2024-01-15T10:11:19;93577.50;;;0.51;100.00
13209;BME280;6669;42.678;23.332;2024-01-15T10:13:49;93588.81;;;0.48;100.00
13209;BME280;6669;42.678;23.332;2024-01-15T10:16:23;93573.03;;;0.73;100.00
13209;BME280;6669;42.678;23.332;2024-01-15T10:18:51;93580.19;;;1.07;100.00
13209;BME280;6669;42.678;23.332;2024-01-15T10:21:20;93536.84;;;1.79;100.00
13209;BME280;6669;42.678;23.332;2024-01-15T10:23:50;93569.97;;;2.71;100.00
13209;BME280;6669;42.678;23.332;2024-01-15T10:26:18;93548.66;;;3.31;100.00
13209;BME280;6669;42.678;23.332;2024-01-15T10:28:50;93547.53;;;3.76;100.00
13209;BME280;6669;42.678;23.332;2024-01-15T10:31:19;93537.63;;;3.47;100.00
13209;BME280;6669;42.678;23.332;2024-01-15T10:33:51;93540.69;;;3.42;100.00
13209;BME280;6669;42.678;23.332;2024-01-15T10:36:20;93533.88;;;3.25;100.00
13209;BME280;6669;42.678;23.332;2024-01-15T10:38:50;93519.41;;;2.89;100.00
13209;BME280;6669;42.678;23.332;2024-01-15T10:41:19;93547.28;;;2.84;100.00
13209;BME280;6669;42.678;23.332;2024-01-15T10:43:47;93506.41;;;2.91;100.00
13209;BME280;6669;42.678;23.332;2024-01-15T10:46:15;93547.06;;;3.30;100.00
13209;BME280;6669;42.678;23.332;2024-01-15T10:48:44;93526.06;;;3.43;100.00
13209;BME280;6669;42.678;23.332;2024-01-15T10:51:13;93541.16;;;3.97;100.00
13209;BME280;6669;42.678;23.332;2024-01-15T10:53:42;93515.09;;;3.84;100.00
13209;BME280;6669;42.678;23.332;2024-01-15T10:56:13;93521.00;;;3.68;100.00
13209;BME280;6669;42.678;23.332;2024-01-15T10:58:42;93523.56;;;3.68;100.00
13209;BME280;6669;42.678;23.332;2024-01-15T11:01:11;93508.28;;;3.58;100.00
13209;BME280;6669;42.678;23.332;2024-01-15T11:03:40;93526.06;;;3.51;100.00
13209;BME280;6669;42.678;23.332;2024-01-15T11:06:16;93492.63;;;3.26;100.00
13209;BME280;6669;42.678;23.332;2024-01-15T11:08:48;93520.81;;;3.53;100.00
13209;BME280;6669;42.678;23.332;2024-01-15T11:11:20;93496.31;;;3.83;100.00
13209;BME280;6669;42.678;23.332;2024-01-15T11:13:49;93503.06;;;4.42;100.00
13209;BME280;6669;42.678;23.332;2024-01-15T11:16:18;93486.91;;;4.98;100.00
13209;BME280;6669;42.678;23.332;2024-01-15T11:19:02;93482.59;;;5.30;100.00
13209;BME280;6669;42.678;23.332;2024-01-15T11:21:33;93493.44;;;5.48;100.00
13209;BME280;6669;42.678;23.332;2024-01-15T11:24:09;93467.59;;;5.33;100.00
13209;BME280;6669;42.678;23.332;2024-01-15T11:26:46;93460.59;;;5.73;100.00
13209;BME280;6669;42.678;23.332;2024-01-15T11:29:29;93456.59;;;5.71;100.00
13209;BME280;6669;42.678;23.332;2024-01-15T11:32:05;93477.03;;;5.72;96.91
13209;BME280;6669;42.678;23.332;2024-01-15T11:34:53;93484.34;;;5.69;95.76
13209;BME280;6669;42.678;23.332;2024-01-15T11:37:26;93475.97;;;5.35;95.45
13209;BME280;6669;42.678;23.332;2024-01-15T11:39:55;93462.28;;;5.35;96.12
13209;BME280;6669;42.678;23.332;2024-01-15T11:42:25;93460.38;;;5.29;100.00
13209;BME280;6669;42.678;23.332;2024-01-15T11:44:54;93451.28;;;5.10;98.21
13209;BME280;6669;42.678;23.332;2024-01-15T11:47:44;93455.28;;;5.12;96.61
13209;BME280;6669;42.678;23.332;2024-01-15T11:50:21;93466.75;;;5.01;97.80
13209;BME280;6669;42.678;23.332;2024-01-15T11:52:58;93464.94;;;5.18;97.19
13209;BME280;6669;42.678;23.332;2024-01-15T11:55:34;93445.88;;;4.80;100.00
13209;BME280;6669;42.678;23.332;2024-01-15T11:58:08;93442.47;;;4.96;100.00
13209;BME280;6669;42.678;23.332;2024-01-15T12:00:40;93427.84;;;4.88;100.00
13209;BME280;6669;42.678;23.332;2024-01-15T12:03:11;93446.72;;;4.80;100.00
13209;BME280;6669;42.678;23.332;2024-01-15T12:05:40;93441.78;;;4.62;100.00
13209;BME280;6669;42.678;23.332;2024-01-15T12:08:25;93442.09;;;4.67;100.00
13209;BME280;6669;42.678;23.332;2024-01-15T12:10:57;93436.47;;;4.55;100.00
13209;BME280;6669;42.678;23.332;2024-01-15T12:13:27;93438.19;;;4.71;100.00
13209;BME280;6669;42.678;23.332;2024-01-15T12:15:58;93427.25;;;4.69;100.00
13209;BME280;6669;42.678;23.332;2024-01-15T12:18:32;93426.63;;;4.67;100.00
13209;BME280;6669;42.678;23.332;2024-01-15T12:21:01;93409.25;;;4.69;100.00
13209;BME280;6669;42.678;23.332;2024-01-15T12:23:29;93411.16;;;4.75;100.00
13209;BME280;6669;42.678;23.332;2024-01-15T12:25:57;93427.59;;;4.66;100.00
13209;BME280;6669;42.678;23.332;2024-01-15T12:31:16;93426.78;;;4.74;100.00
13209;BME280;6669;42.678;23.332;2024-01-15T12:34:02;93424.69;;;4.69;100.00
13209;BME280;6669;42.678;23.332;2024-01-15T12:36:41;93398.63;;;4.64;100.00
13209;BME280;6669;42.678;23.332;2024-01-15T12:39:11;93402.59;;;4.91;100.00
13209;BME280;6669;42.678;23.332;2024-01-15T12:41:40;93401.56;;;5.01;100.00
13209;BME280;6669;42.678;23.332;2024-01-15T12:44:10;93393.91;;;4.93;100.00
13209;BME280;6669;42.678;23.332;2024-01-15T12:46:38;93379.53;;;4.98;100.00
13209;BME280;6669;42.678;23.332;2024-01-15T12:49:07;93390.97;;;4.96;100.00
13209;BME280;6669;42.678;23.332;2024-01-15T12:51:36;93404.97;;;4.93;100.00
13209;BME280;6669;42.678;23.332;2024-01-15T12:54:05;93408.56;;;4.84;100.00
13209;BME280;6669;42.678;23.332;2024-01-15T12:56:33;93391.81;;;4.80;100.00
13209;BME280;6669;42.678;23.332;2024-01-15T12:59:02;93373.13;;;4.86;100.00
13209;BME280;6669;42.678;23.332;2024-01-15T13:01:31;93380.09;;;4.77;100.00
13209;BME280;6669;42.678;23.332;2024-01-15T13:04:00;93385.88;;;4.79;100.00
13209;BME280;6669;42.678;23.332;2024-01-15T13:06:28;93386.34;;;4.83;100.00